Flight Track Log - Related Links

Times and Time Zones

All times are in EDT time to prevent confusion due to time zone crossing. See the DAL268 flight status page for this flight to view local times or setup timezone preferences in your user account.

Time Position Orientation Groundspeed Altitude Reporting Facility
EDT Latitude Longitude Course Direction KTS MPH feet Rate Location/Type
Mon 06:19:08 PM 33.6333 -84.4833 64° Northeast 196 226 2,900  Level Atlanta TRACON
Mon 06:20:08 PM 33.6000 -84.5667 244° Southwest 257 296 4,700 2,250 Climbing Atlanta TRACON
Mon 06:21:00 PM 33.7125 -84.0081 101° East  Level FlightAware Approximate
Mon 06:21:08 PM 33.5333 -84.5833 192° South 283 326 7,400  Level Atlanta TRACON
Mon 06:22:00 PM 33.6896 -83.8701 101° East  Level FlightAware Approximate
Mon 06:22:08 PM 33.4500 -84.5500 162° South 326 375 9,200  Level Atlanta TRACON
Mon 06:23:00 PM 33.6665 -83.7322 101° East  Level FlightAware Approximate
Mon 06:23:44 PM 33.4556 -84.3775 88° East 340 391 11,300  Level Atlanta Center
Mon 06:24:00 PM 33.6646 -83.5976 64° Northeast  Level FlightAware Approximate
Mon 06:24:44 PM 33.4683 -84.2481 83° East 366 421 12,500  Level Atlanta Center
Mon 06:25:44 PM 33.5208 -84.1286 62° Northeast 398 458 14,400 1,800 Climbing Atlanta Center
Mon 06:26:44 PM 33.5731 -84.0014 64° Northeast 412 474 16,100 1,750 Climbing Atlanta Center
Mon 06:27:44 PM 33.6167 -83.8667 69° East 426 490 17,900 1,600 Climbing Atlanta Center
Mon 06:28:44 PM 33.6478 -83.7169 76° East 437 503 19,300 1,300 Climbing Atlanta Center
Mon 06:29:44 PM 33.6847 -83.5794 72° East 464 534 20,500 1,500 Climbing Atlanta Center
Mon 06:30:44 PM 33.7406 -83.4417 64° Northeast 464 534 22,300 1,500 Climbing Atlanta Center
Mon 06:31:44 PM 33.7983 -83.3014 64° Northeast 464 534 23,500 1,250 Climbing Atlanta Center
Mon 06:32:44 PM 33.8578 -83.1583 63° Northeast 470 541 24,800 1,500 Climbing Atlanta Center
Mon 06:33:44 PM 33.9153 -83.0150 64° Northeast 470 541 26,500 1,550 Climbing Atlanta Center
Mon 06:34:44 PM 33.9725 -82.8714 64° Northeast 465 535 27,900 1,350 Climbing Atlanta Center
Mon 06:35:44 PM 34.0253 -82.7331 65° Northeast 465 535 29,200 1,200 Climbing Atlanta Center
Mon 06:36:44 PM 34.0822 -82.5917 64° Northeast 459 528 30,300 1,150 Climbing Atlanta Center
Mon 06:37:44 PM 34.1347 -82.4553 65° Northeast 453 521 31,500 1,000 Climbing Atlanta Center
Mon 06:38:44 PM 34.1892 -82.3186 64° Northeast 448 516 32,300 650 Climbing Atlanta Center
Mon 06:39:44 PM 34.2414 -82.1794 66° East 448 516 32,800 350 Climbing Atlanta Center
Mon 06:40:44 PM 34.3061 -82.0472 59° Northeast 443 510 33,000 100 Climbing Atlanta Center
Mon 06:41:44 PM 34.3728 -81.9147 59° Northeast 454 522 33,000  Level Atlanta Center
Mon 06:42:44 PM 34.4392 -81.7794 59° Northeast 460 529 33,000  Level Atlanta Center
Mon 06:43:44 PM 34.5097 -81.6442 58° Northeast 465 535 33,000  Level Atlanta Center
Mon 06:44:44 PM 34.5758 -81.5058 60° Northeast 471 542 33,000  Level Atlanta Center
Mon 06:45:44 PM 34.6419 -81.3725 59° Northeast 476 548 33,000  Level Atlanta Center
Mon 06:46:44 PM 34.7097 -81.2339 59° Northeast 471 542 33,000  Level Atlanta Center
Mon 06:47:44 PM 34.7775 -81.0928 60° Northeast 478 550 33,000  Level Atlanta Center
Mon 06:48:44 PM 34.8408 -80.9589 60° Northeast 473 544 33,000  Level Atlanta Center
Mon 06:49:44 PM 34.9103 -80.8169 59° Northeast 478 550 33,000  Level Atlanta Center
Mon 06:52:14 PM 35.0781 -80.4650 60° Northeast 473 544 33,000  Level Washington Center
Mon 06:53:14 PM 35.1531 -80.3119 59° Northeast 473 544 33,000  Level Washington Center
Mon 06:54:15 PM 35.2233 -80.1686 59° Northeast 473 544 33,000  Level Washington Center
Mon 06:55:13 PM 35.2936 -80.0225 59° Northeast 489 563 33,000  Level Washington Center
Mon 06:56:14 PM 35.3453 -79.8622 68° East 489 563 33,000  Level Washington Center
Mon 06:57:15 PM 35.3947 -79.7019 69° East 494 568 33,000  Level Washington Center
Mon 06:58:12 PM 35.4439 -79.5464 69° East 499 574 33,000  Level Washington Center
Mon 06:59:14 PM 35.4883 -79.4031 69° East 499 574 33,000  Level Washington Center
Mon 07:00:14 PM 35.5328 -79.2444 71° East 499 574 33,000  Level Washington Center
Mon 07:01:13 PM 35.5861 -79.0706 69° East 499 574 33,000  Level Washington Center
Mon 07:02:15 PM 35.6344 -78.9092 70° East 494 568 33,000  Level Washington Center
Mon 07:03:12 PM 35.6758 -78.7625 71° East 499 574 33,000  Level Washington Center
Mon 07:04:13 PM 35.7261 -78.5983 69° East 504 580 33,000  Level Washington Center
Mon 07:05:13 PM 35.7739 -78.4311 71° East 504 580 33,000  Level Washington Center
Mon 07:06:13 PM 35.8194 -78.2689 71° East 504 580 33,000  Level Washington Center
Mon 07:07:13 PM 35.8669 -78.1014 71° East 504 580 33,000  Level Washington Center
Mon 07:08:14 PM 35.9142 -77.9336 71° East 504 580 33,000  Level Washington Center
Mon 07:09:15 PM 35.9633 -77.7631 70° East 504 580 33,000  Level Washington Center
Mon 07:10:13 PM 36.0347 -77.6133 59° Northeast 504 580 33,000  Level Washington Center
Mon 07:11:14 PM 36.1225 -77.4769 51° Northeast 498 573 33,000  Level Washington Center
Mon 07:12:15 PM 36.2103 -77.3244 54° Northeast 498 573 33,000  Level Washington Center
Mon 07:13:13 PM 36.2978 -77.1872 52° Northeast 498 573 33,000  Level Washington Center
Mon 07:14:13 PM 36.3831 -77.0472 53° Northeast 505 581 33,000  Level Washington Center
Mon 07:15:14 PM 36.4681 -76.9067 53° Northeast 499 574 33,000  Level Washington Center
Mon 07:16:15 PM 36.5531 -76.7683 53° Northeast 499 574 33,000  Level Washington Center
Mon 07:17:15 PM 36.6378 -76.6300 53° Northeast 499 574 33,000  Level Washington Center
Mon 07:18:13 PM 36.7222 -76.4833 54° Northeast 499 574 33,000  Level Washington Center
Mon 07:19:13 PM 36.8067 -76.3469 52° Northeast 499 574 33,000  Level Washington Center
Mon 07:20:14 PM 36.8847 -76.2203 52° Northeast 499 574 33,000  Level Washington Center
Mon 07:21:15 PM 37.0081 -76.1381 28° Northeast 483 556 33,000  Level Washington Center
Mon 07:22:15 PM 37.1336 -76.0739 22° Northeast 475 547 33,000  Level Washington Center
Mon 07:23:14 PM 37.2589 -76.0067 23° Northeast 480 552 33,000  Level Washington Center
Mon 07:24:14 PM 37.3864 -75.9394 23° Northeast 486 559 33,000  Level Washington Center
Mon 07:25:15 PM 37.5158 -75.8694 23° Northeast 492 566 33,000  Level Washington Center
Mon 07:26:12 PM 37.6369 -75.7858 29° Northeast 492 566 33,000  Level Washington Center
Mon 07:27:13 PM 37.7561 -75.6942 31° Northeast 492 566 33,000  Level Washington Center
Mon 07:28:13 PM 37.8769 -75.6050 30° Northeast 502 578 33,000  Level Washington Center
Mon 07:29:14 PM 37.9978 -75.5128 31° Northeast 502 578 33,000 -50 Level Washington Center
Mon 07:30:14 PM 38.1231 -75.4308 27° Northeast 502 578 32,900  Descending Washington Center
Mon 07:31:15 PM 38.2481 -75.3511 27° Northeast 496 571 33,000 50 Climbing Washington Center
Mon 07:32:15 PM 38.3728 -75.2658 28° Northeast 496 571 33,000  Level Washington Center
Mon 07:33:13 PM 38.4978 -75.1886 26° Northeast 496 571 33,000  Level Washington Center
Mon 07:34:14 PM 38.6225 -75.1056 27° Northeast 491 565 33,000 -49 Level Washington Center
Mon 07:35:15 PM 38.7492 -75.0272 26° Northeast 491 565 32,900  Descending Washington Center
Mon 07:36:13 PM 38.8719 -74.9464 27° Northeast 491 565 33,000 -454 Climbing Washington Center
Mon 07:37:14 PM 38.9964 -74.8678 26° Northeast 491 565 32,000 -2,132 Descending Washington Center
Mon 07:38:14 PM 39.1208 -74.7756 30° Northeast 491 565 28,700 -2,727 Descending Washington Center
Mon 07:39:15 PM 39.2306 -74.6592 39° Northeast 497 572 26,500 -2,370 Descending Washington Center
Mon 07:40:13 PM 39.3317 -74.5450 41° Northeast 497 572 24,000 -2,354 Descending Washington Center
Mon 07:42:44 PM 39.5842 -74.2753 39° Northeast 455 524 18,300 -1,760 Descending New York Center
Mon 07:43:41 PM 39.6575 -74.1953 40° Northeast 404 465 17,900 -712 Descending New York Center
Mon 07:44:42 PM 39.7328 -74.1100 41° Northeast 364 419 16,900 -1,279 Descending New York Center
Mon 07:45:43 PM 39.8081 -74.0269 40° Northeast 334 384 15,300 -1,714 Descending New York Center
Mon 07:46:41 PM 39.8808 -73.9600 35° Northeast 316 364 13,500 -1,613 Descending New York Center
Mon 07:47:42 PM 39.9508 -73.9119 28° Northeast 311 358 12,100 -1,200 Descending New York Center
Mon 07:48:41 PM 40.0189 -73.8633 29° Northeast 291 335 11,100 -550 Descending New York Center
Mon 07:49:42 PM 40.0914 -73.8069 31° Northeast 274 315 11,000 -98 Descending New York Center
Mon 07:50:43 PM 40.1489 -73.7553 34° Northeast 274 315 10,900 -456 Descending New York Center
Mon 07:51:01 PM 40.1833 -73.7333 26° Northeast 280 322 10,400 -1,385 Descending New York TRACON
Mon 07:52:01 PM 40.2333 -73.6833 37° Northeast 268 308 9,100 -1,500 Descending New York TRACON
Mon 07:53:01 PM 40.3000 -73.6333 30° Northeast 253 291 7,400 -1,260 Descending New York TRACON
Mon 07:53:41 PM 40.3483 -73.6169 14° North 252 290 7,000 -238 Descending New York Center
Mon 07:54:42 PM 40.4094 -73.5867 21° North 252 290 7,000  Level New York Center
Mon 07:55:01 PM 40.4333 -73.5667 33° Northeast 258 297 7,000  Level New York TRACON
Mon 07:56:01 PM 40.5000 -73.5333 21° North 262 302 7,000 -650 Level New York TRACON
Mon 07:57:01 PM 40.5667 -73.5000 21° North 256 295 5,700 -952 Descending New York TRACON
Mon 07:58:07 PM 40.6333 -73.4500 30° Northeast 233 268 5,000 -333 Descending New York TRACON
Mon 07:59:07 PM 40.6667 -73.3833 57° Northeast 222 255 5,000  Level New York TRACON
Mon 08:00:01 PM 40.7000 -73.3333 49° Northeast 220 253 5,000 -105 Level New York TRACON
Mon 08:01:01 PM 40.7667 -73.3333 360° North 203 234 4,800 -571 Descending New York TRACON
Mon 08:02:07 PM 40.8167 -73.3333 360° North 196 226 3,800 -900 Descending New York TRACON
Mon 08:03:01 PM 40.8167 -73.3833 270° West 170 196 3,000 -400 Descending New York TRACON
Mon 08:04:07 PM 40.8333 -73.4667 285° West 171 197 3,000 -286 Level New York TRACON
Mon 08:05:07 PM 40.8333 -73.5167 270° West 171 197 2,400 -500 Descending New York TRACON
Mon 08:06:07 PM 40.8167 -73.5833 252° West 184 212 2,000 -200 Descending New York TRACON
Mon 08:07:07 PM 40.7833 -73.6333 229° Southwest 185 213 2,000  Level New York TRACON

Login

Don't have an account? Register now (free) for customized features, flight alerts, and more!